Terminal Aerodrome Forecast
Issued by NWS

Home | Current Version | Previous Version | Graphics & Text | Print | Product List | Glossary On
Versions: 1 2 3 4 5 6 7 8 9 10 11 12 13 14 15 16
000
FTUS43 KICT 232046 AAA
TAFCNU
TAF AMD
KCNU 232046Z 2321/2418 15008KT P6SM -SHRA VCTS SCT045CB BKN070
      TEMPO 2321/2324 5SM -TSRA BR BKN035CB
     FM240000 15007KT P6SM SCT060 BKN200
     FM241500 17006KT P6SM BKN150=

USA.gov is the U.S. government's official web portal to all federal, state and local government web resources and services.